sensor_id;sensor_type;location;lat;lon;timestamp;pressure;altitude;pressure_sealevel;temperature;humidity
9261;BME280;4667;42.726;23.252;2022-11-23T00:00:56;93997.53;;;8.29;nan
9261;BME280;4667;42.726;23.252;2022-11-23T00:03:23;94008.38;;;8.26;nan
9261;BME280;4667;42.726;23.252;2022-11-23T00:05:51;93992.69;;;8.13;nan
9261;BME280;4667;42.726;23.252;2022-11-23T00:08:17;94016.53;;;8.18;nan
9261;BME280;4667;42.726;23.252;2022-11-23T00:10:44;94004.88;;;7.91;nan
9261;BME280;4667;42.726;23.252;2022-11-23T00:13:11;94013.09;;;7.73;nan
9261;BME280;4667;42.726;23.252;2022-11-23T00:15:39;94010.06;;;7.68;nan
9261;BME280;4667;42.726;23.252;2022-11-23T00:18:06;93998.69;;;7.91;nan
9261;BME280;4667;42.726;23.252;2022-11-23T00:20:33;94002.91;;;7.95;nan
9261;BME280;4667;42.726;23.252;2022-11-23T00:23:01;93972.53;;;7.88;nan
9261;BME280;4667;42.726;23.252;2022-11-23T00:25:27;93982.19;;;8.23;nan
9261;BME280;4667;42.726;23.252;2022-11-23T00:27:55;93996.44;;;8.27;nan
9261;BME280;4667;42.726;23.252;2022-11-23T00:30:21;93979.84;;;8.28;nan
9261;BME280;4667;42.726;23.252;2022-11-23T00:32:48;93982.28;;;8.15;nan
9261;BME280;4667;42.726;23.252;2022-11-23T00:35:15;93989.88;;;8.28;nan
9261;BME280;4667;42.726;23.252;2022-11-23T00:37:42;93992.16;;;8.29;nan
9261;BME280;4667;42.726;23.252;2022-11-23T00:40:11;93991.00;;;8.34;nan
9261;BME280;4667;42.726;23.252;2022-11-23T00:42:38;93992.16;;;8.29;nan
9261;BME280;4667;42.726;23.252;2022-11-23T00:45:05;93992.97;;;8.23;nan
9261;BME280;4667;42.726;23.252;2022-11-23T00:47:32;93995.25;;;8.31;nan
9261;BME280;4667;42.726;23.252;2022-11-23T00:49:59;93980.59;;;8.32;nan
9261;BME280;4667;42.726;23.252;2022-11-23T00:52:25;93984.50;;;8.24;nan
9261;BME280;4667;42.726;23.252;2022-11-23T00:54:52;93986.75;;;8.29;nan
9261;BME280;4667;42.726;23.252;2022-11-23T00:57:20;93977.53;;;8.30;nan
9261;BME280;4667;42.726;23.252;2022-11-23T00:59:47;93988.31;;;8.30;nan
9261;BME280;4667;42.726;23.252;2022-11-23T01:02:14;94001.72;;;8.37;nan
9261;BME280;4667;42.726;23.252;2022-11-23T01:04:41;93995.97;;;8.35;nan
9261;BME280;4667;42.726;23.252;2022-11-23T01:07:07;93989.78;;;8.35;nan
9261;BME280;4667;42.726;23.252;2022-11-23T01:09:36;93992.97;;;8.23;nan
9261;BME280;4667;42.726;23.252;2022-11-23T01:12:03;93967.16;;;8.25;nan
9261;BME280;4667;42.726;23.252;2022-11-23T01:14:31;93991.03;;;8.27;nan
9261;BME280;4667;42.726;23.252;2022-11-23T01:16:58;94009.00;;;7.99;nan
9261;BME280;4667;42.726;23.252;2022-11-23T01:19:24;94006.13;;;7.79;nan
9261;BME280;4667;42.726;23.252;2022-11-23T01:21:51;94010.75;;;7.75;nan
9261;BME280;4667;42.726;23.252;2022-11-23T01:24:20;93993.47;;;7.73;nan
9261;BME280;4667;42.726;23.252;2022-11-23T01:26:49;93976.81;;;7.85;nan
9261;BME280;4667;42.726;23.252;2022-11-23T01:29:17;93986.75;;;7.92;nan
9261;BME280;4667;42.726;23.252;2022-11-23T01:31:45;93983.78;;;7.79;nan
9261;BME280;4667;42.726;23.252;2022-11-23T01:34:12;93996.50;;;7.75;nan
9261;BME280;4667;42.726;23.252;2022-11-23T01:36:40;93973.78;;;7.76;nan
9261;BME280;4667;42.726;23.252;2022-11-23T01:39:06;93971.34;;;7.92;nan
9261;BME280;4667;42.726;23.252;2022-11-23T01:41:35;93982.75;;;8.07;nan
9261;BME280;4667;42.726;23.252;2022-11-23T01:44:23;93977.72;;;8.09;nan
9261;BME280;4667;42.726;23.252;2022-11-23T01:46:53;94004.16;;;7.84;nan
9261;BME280;4667;42.726;23.252;2022-11-23T01:49:20;93999.28;;;7.68;nan
9261;BME280;4667;42.726;23.252;2022-11-23T01:51:49;93975.38;;;7.73;nan
9261;BME280;4667;42.726;23.252;2022-11-23T01:54:20;93980.72;;;7.77;nan
9261;BME280;4667;42.726;23.252;2022-11-23T01:56:53;93996.06;;;7.84;nan
9261;BME280;4667;42.726;23.252;2022-11-23T01:59:21;93982.53;;;7.87;nan
9261;BME280;4667;42.726;23.252;2022-11-23T02:01:49;93983.56;;;8.04;nan
9261;BME280;4667;42.726;23.252;2022-11-23T02:04:21;93962.72;;;8.08;nan
9261;BME280;4667;42.726;23.252;2022-11-23T02:06:49;93956.88;;;8.13;nan
9261;BME280;4667;42.726;23.252;2022-11-23T02:09:16;93951.56;;;8.06;nan
9261;BME280;4667;42.726;23.252;2022-11-23T02:11:44;93960.66;;;8.19;nan
9261;BME280;4667;42.726;23.252;2022-11-23T02:14:11;93970.69;;;8.18;nan
9261;BME280;4667;42.726;23.252;2022-11-23T02:16:38;93972.22;;;8.19;nan
9261;BME280;4667;42.726;23.252;2022-11-23T02:19:10;93966.53;;;8.10;nan
9261;BME280;4667;42.726;23.252;2022-11-23T02:21:40;93964.66;;;8.07;nan
9261;BME280;4667;42.726;23.252;2022-11-23T02:24:13;93956.00;;;8.23;nan
9261;BME280;4667;42.726;23.252;2022-11-23T02:26:44;93976.38;;;8.28;nan
9261;BME280;4667;42.726;23.252;2022-11-23T02:29:14;93960.59;;;8.26;nan
9261;BME280;4667;42.726;23.252;2022-11-23T02:31:43;93960.19;;;8.31;nan
9261;BME280;4667;42.726;23.252;2022-11-23T02:34:10;93954.34;;;8.36;nan
9261;BME280;4667;42.726;23.252;2022-11-23T02:36:39;93958.19;;;8.35;nan
9261;BME280;4667;42.726;23.252;2022-11-23T02:39:10;93954.50;;;8.18;nan
9261;BME280;4667;42.726;23.252;2022-11-23T02:41:39;93931.34;;;7.87;nan
9261;BME280;4667;42.726;23.252;2022-11-23T02:44:21;93927.69;;;8.04;nan
9261;BME280;4667;42.726;23.252;2022-11-23T02:46:50;93940.31;;;8.14;nan
9261;BME280;4667;42.726;23.252;2022-11-23T02:49:18;93933.38;;;8.13;nan
9261;BME280;4667;42.726;23.252;2022-11-23T02:51:44;93903.09;;;7.99;nan
9261;BME280;4667;42.726;23.252;2022-11-23T02:54:11;93909.56;;;8.08;nan
9261;BME280;4667;42.726;23.252;2022-11-23T02:56:38;93904.59;;;8.03;nan
9261;BME280;4667;42.726;23.252;2022-11-23T02:59:05;93907.63;;;8.09;nan
9261;BME280;4667;42.726;23.252;2022-11-23T03:01:33;93900.25;;;8.13;nan
9261;BME280;4667;42.726;23.252;2022-11-23T03:03:59;93896.00;;;8.15;nan
9261;BME280;4667;42.726;23.252;2022-11-23T03:06:26;93902.16;;;8.16;nan
9261;BME280;4667;42.726;23.252;2022-11-23T03:08:53;93905.19;;;7.84;nan
9261;BME280;4667;42.726;23.252;2022-11-23T03:11:20;93870.75;;;7.99;nan
9261;BME280;4667;42.726;23.252;2022-11-23T03:13:46;93893.56;;;7.91;nan
9261;BME280;4667;42.726;23.252;2022-11-23T03:16:13;93904.97;;;7.68;nan
9261;BME280;4667;42.726;23.252;2022-11-23T03:18:42;93866.75;;;7.76;nan
9261;BME280;4667;42.726;23.252;2022-11-23T03:21:09;93883.25;;;7.82;nan
9261;BME280;4667;42.726;23.252;2022-11-23T03:23:36;93897.56;;;7.75;nan
9261;BME280;4667;42.726;23.252;2022-11-23T03:26:03;93879.47;;;7.76;nan
9261;BME280;4667;42.726;23.252;2022-11-23T03:28:30;93898.19;;;7.90;nan
9261;BME280;4667;42.726;23.252;2022-11-23T03:30:57;93889.59;;;7.65;nan
9261;BME280;4667;42.726;23.252;2022-11-23T03:33:23;93889.22;;;8.00;nan
9261;BME280;4667;42.726;23.252;2022-11-23T03:35:52;93890.75;;;7.64;nan
9261;BME280;4667;42.726;23.252;2022-11-23T03:38:18;93852.75;;;7.89;nan
9261;BME280;4667;42.726;23.252;2022-11-23T03:40:46;93874.66;;;7.94;nan
9261;BME280;4667;42.726;23.252;2022-11-23T03:43:13;93853.16;;;7.87;nan
9261;BME280;4667;42.726;23.252;2022-11-23T03:45:40;93856.06;;;8.03;nan
9261;BME280;4667;42.726;23.252;2022-11-23T03:48:07;93844.72;;;7.85;nan
9261;BME280;4667;42.726;23.252;2022-11-23T03:50:35;93846.00;;;8.07;nan
9261;BME280;4667;42.726;23.252;2022-11-23T03:53:03;93881.56;;;7.95;nan
9261;BME280;4667;42.726;23.252;2022-11-23T03:55:30;93842.75;;;7.89;nan
9261;BME280;4667;42.726;23.252;2022-11-23T03:57:58;93842.09;;;8.12;nan
9261;BME280;4667;42.726;23.252;2022-11-23T04:00:25;93864.91;;;7.70;nan
9261;BME280;4667;42.726;23.252;2022-11-23T04:02:52;93859.44;;;7.77;nan
9261;BME280;4667;42.726;23.252;2022-11-23T04:05:19;93866.75;;;8.10;nan
9261;BME280;4667;42.726;23.252;2022-11-23T04:07:46;93887.13;;;7.81;nan
9261;BME280;4667;42.726;23.252;2022-11-23T04:10:15;93875.66;;;8.07;nan
9261;BME280;4667;42.726;23.252;2022-11-23T04:12:43;93886.97;;;7.95;nan
9261;BME280;4667;42.726;23.252;2022-11-23T04:15:10;93881.59;;;8.26;nan
9261;BME280;4667;42.726;23.252;2022-11-23T04:17:37;93891.38;;;8.12;nan
9261;BME280;4667;42.726;23.252;2022-11-23T04:20:05;93885.97;;;8.16;nan
9261;BME280;4667;42.726;23.252;2022-11-23T04:22:32;93893.25;;;8.19;nan
9261;BME280;4667;42.726;23.252;2022-11-23T04:24:59;93888.28;;;8.14;nan
9261;BME280;4667;42.726;23.252;2022-11-23T04:27:27;93895.44;;;7.94;nan
9261;BME280;4667;42.726;23.252;2022-11-23T04:29:53;93886.69;;;8.20;nan
9261;BME280;4667;42.726;23.252;2022-11-23T04:32:20;93899.09;;;8.14;nan
9261;BME280;4667;42.726;23.252;2022-11-23T04:34:47;93888.22;;;8.21;nan
9261;BME280;4667;42.726;23.252;2022-11-23T04:37:14;93879.06;;;8.11;nan
9261;BME280;4667;42.726;23.252;2022-11-23T04:39:40;93894.47;;;8.11;nan
9261;BME280;4667;42.726;23.252;2022-11-23T04:42:08;93911.56;;;8.01;nan
9261;BME280;4667;42.726;23.252;2022-11-23T04:44:38;93900.72;;;8.04;nan
9261;BME280;4667;42.726;23.252;2022-11-23T04:47:04;93898.56;;;7.92;nan
9261;BME280;4667;42.726;23.252;2022-11-23T04:49:31;93899.34;;;7.89;nan
9261;BME280;4667;42.726;23.252;2022-11-23T04:51:58;93898.53;;;7.96;nan
9261;BME280;4667;42.726;23.252;2022-11-23T04:54:25;93916.53;;;7.68;nan
9261;BME280;4667;42.726;23.252;2022-11-23T04:56:52;93917.03;;;7.53;nan
9261;BME280;4667;42.726;23.252;2022-11-23T04:59:21;93918.06;;;7.66;nan
9261;BME280;4667;42.726;23.252;2022-11-23T05:01:51;93916.81;;;7.33;nan
9261;BME280;4667;42.726;23.252;2022-11-23T05:04:21;93932.72;;;7.65;nan
9261;BME280;4667;42.726;23.252;2022-11-23T05:06:48;93924.03;;;7.47;nan
9261;BME280;4667;42.726;23.252;2022-11-23T05:09:15;93923.84;;;7.64;nan
9261;BME280;4667;42.726;23.252;2022-11-23T05:11:41;93924.72;;;7.54;nan
9261;BME280;4667;42.726;23.252;2022-11-23T05:14:08;93924.34;;;7.56;nan
9261;BME280;4667;42.726;23.252;2022-11-23T05:16:36;93917.69;;;7.64;nan
9261;BME280;4667;42.726;23.252;2022-11-23T05:19:05;93907.75;;;7.61;nan
9261;BME280;4667;42.726;23.252;2022-11-23T05:21:31;93900.25;;;7.75;nan
9261;BME280;4667;42.726;23.252;2022-11-23T05:23:58;93905.31;;;7.73;nan
9261;BME280;4667;42.726;23.252;2022-11-23T05:26:25;93907.91;;;7.80;nan
9261;BME280;4667;42.726;23.252;2022-11-23T05:28:52;93897.88;;;7.81;nan
9261;BME280;4667;42.726;23.252;2022-11-23T05:31:18;93901.53;;;7.64;nan
9261;BME280;4667;42.726;23.252;2022-11-23T05:33:45;93900.03;;;7.59;nan
9261;BME280;4667;42.726;23.252;2022-11-23T05:36:14;93898.31;;;7.79;nan
9261;BME280;4667;42.726;23.252;2022-11-23T05:38:41;93895.19;;;7.81;nan
9261;BME280;4667;42.726;23.252;2022-11-23T05:41:08;93876.44;;;7.74;nan
9261;BME280;4667;42.726;23.252;2022-11-23T05:43:35;93886.63;;;7.52;nan
9261;BME280;4667;42.726;23.252;2022-11-23T05:46:02;93911.03;;;7.34;nan
9261;BME280;4667;42.726;23.252;2022-11-23T05:48:29;93896.31;;;7.50;nan
9261;BME280;4667;42.726;23.252;2022-11-23T05:50:56;93884.50;;;7.74;nan
9261;BME280;4667;42.726;23.252;2022-11-23T05:53:24;93888.81;;;7.68;nan
9261;BME280;4667;42.726;23.252;2022-11-23T05:55:51;93883.09;;;7.62;nan
9261;BME280;4667;42.726;23.252;2022-11-23T05:58:18;93890.97;;;7.43;nan
9261;BME280;4667;42.726;23.252;2022-11-23T06:00:45;93899.00;;;7.50;nan
9261;BME280;4667;42.726;23.252;2022-11-23T06:03:11;93895.97;;;7.82;nan
9261;BME280;4667;42.726;23.252;2022-11-23T06:05:38;93897.47;;;7.86;nan
9261;BME280;4667;42.726;23.252;2022-11-23T06:08:05;93907.66;;;8.05;nan
9261;BME280;4667;42.726;23.252;2022-11-23T06:10:33;93896.47;;;8.07;nan
9261;BME280;4667;42.726;23.252;2022-11-23T06:13:03;93901.53;;;8.01;nan
9261;BME280;4667;42.726;23.252;2022-11-23T06:15:30;93898.69;;;8.15;nan
9261;BME280;4667;42.726;23.252;2022-11-23T06:18:00;93908.66;;;8.18;nan
9261;BME280;4667;42.726;23.252;2022-11-23T06:20:27;93923.72;;;8.16;nan
9261;BME280;4667;42.726;23.252;2022-11-23T06:22:54;93922.78;;;7.96;nan
9261;BME280;4667;42.726;23.252;2022-11-23T06:25:21;93935.13;;;8.31;nan
9261;BME280;4667;42.726;23.252;2022-11-23T06:27:55;93936.00;;;8.20;nan
9261;BME280;4667;42.726;23.252;2022-11-23T06:30:23;93931.28;;;8.32;nan
9261;BME280;4667;42.726;23.252;2022-11-23T06:32:49;93936.44;;;8.15;nan
9261;BME280;4667;42.726;23.252;2022-11-23T06:35:16;93940.56;;;8.24;nan
9261;BME280;4667;42.726;23.252;2022-11-23T06:37:44;93934.50;;;8.16;nan
9261;BME280;4667;42.726;23.252;2022-11-23T06:40:18;93937.09;;;8.27;nan
9261;BME280;4667;42.726;23.252;2022-11-23T06:42:45;93929.44;;;8.55;nan
9261;BME280;4667;42.726;23.252;2022-11-23T06:45:14;93929.88;;;8.50;nan
9261;BME280;4667;42.726;23.252;2022-11-23T06:47:40;93925.50;;;8.60;nan
9261;BME280;4667;42.726;23.252;2022-11-23T06:50:11;93915.09;;;8.62;nan
9261;BME280;4667;42.726;23.252;2022-11-23T06:52:38;93918.03;;;8.71;nan
9261;BME280;4667;42.726;23.252;2022-11-23T06:55:07;93907.56;;;9.04;nan
9261;BME280;4667;42.726;23.252;2022-11-23T06:57:33;93915.41;;;8.94;nan
9261;BME280;4667;42.726;23.252;2022-11-23T07:00:01;93932.22;;;9.06;nan
9261;BME280;4667;42.726;23.252;2022-11-23T07:02:30;93935.63;;;8.83;nan
9261;BME280;4667;42.726;23.252;2022-11-23T07:04:57;93926.06;;;9.05;nan
9261;BME280;4667;42.726;23.252;2022-11-23T07:07:24;93917.44;;;9.37;nan
9261;BME280;4667;42.726;23.252;2022-11-23T07:09:53;93912.13;;;9.57;nan
9261;BME280;4667;42.726;23.252;2022-11-23T07:12:20;93911.03;;;9.74;nan
9261;BME280;4667;42.726;23.252;2022-11-23T07:14:47;93919.28;;;10.10;nan
9261;BME280;4667;42.726;23.252;2022-11-23T07:17:16;93927.75;;;10.12;nan
9261;BME280;4667;42.726;23.252;2022-11-23T07:19:44;93921.63;;;10.08;nan
9261;BME280;4667;42.726;23.252;2022-11-23T07:22:11;93916.22;;;10.67;nan
9261;BME280;4667;42.726;23.252;2022-11-23T07:24:37;93912.19;;;10.75;nan
9261;BME280;4667;42.726;23.252;2022-11-23T07:27:04;93904.09;;;10.91;nan
9261;BME280;4667;42.726;23.252;2022-11-23T07:29:31;93912.31;;;10.88;nan
9261;BME280;4667;42.726;23.252;2022-11-23T07:31:58;93911.25;;;11.18;nan
9261;BME280;4667;42.726;23.252;2022-11-23T07:34:24;93908.72;;;11.27;nan
9261;BME280;4667;42.726;23.252;2022-11-23T07:36:56;93914.22;;;11.07;nan
9261;BME280;4667;42.726;23.252;2022-11-23T07:39:25;93915.63;;;10.95;nan
9261;BME280;4667;42.726;23.252;2022-11-23T07:41:52;93908.38;;;11.25;nan
9261;BME280;4667;42.726;23.252;2022-11-23T07:44:18;93898.13;;;11.00;nan
9261;BME280;4667;42.726;23.252;2022-11-23T07:46:45;93893.81;;;10.67;nan
9261;BME280;4667;42.726;23.252;2022-11-23T07:49:12;93884.75;;;11.25;nan
9261;BME280;4667;42.726;23.252;2022-11-23T07:51:40;93905.69;;;11.41;nan
9261;BME280;4667;42.726;23.252;2022-11-23T07:54:09;93906.91;;;11.69;nan
9261;BME280;4667;42.726;23.252;2022-11-23T07:56:36;93907.09;;;11.94;nan
9261;BME280;4667;42.726;23.252;2022-11-23T07:59:03;93910.16;;;11.80;nan
9261;BME280;4667;42.726;23.252;2022-11-23T08:01:30;93903.53;;;11.97;nan
9261;BME280;4667;42.726;23.252;2022-11-23T08:03:58;93905.34;;;12.16;nan
9261;BME280;4667;42.726;23.252;2022-11-23T08:06:29;93903.38;;;12.58;nan
9261;BME280;4667;42.726;23.252;2022-11-23T08:09:00;93898.63;;;12.62;nan
9261;BME280;4667;42.726;23.252;2022-11-23T08:11:29;93901.81;;;13.12;nan
9261;BME280;4667;42.726;23.252;2022-11-23T08:13:57;93894.66;;;13.43;nan
9261;BME280;4667;42.726;23.252;2022-11-23T08:16:24;93892.25;;;13.70;nan
9261;BME280;4667;42.726;23.252;2022-11-23T08:18:51;93883.41;;;13.66;nan
9261;BME280;4667;42.726;23.252;2022-11-23T08:21:19;93885.31;;;13.44;nan
9261;BME280;4667;42.726;23.252;2022-11-23T08:23:46;93881.38;;;13.92;nan
9261;BME280;4667;42.726;23.252;2022-11-23T08:26:13;93878.63;;;14.05;nan
9261;BME280;4667;42.726;23.252;2022-11-23T08:28:41;93865.97;;;14.11;nan
9261;BME280;4667;42.726;23.252;2022-11-23T08:31:09;93873.38;;;14.10;nan
9261;BME280;4667;42.726;23.252;2022-11-23T08:33:36;93871.41;;;13.76;nan
9261;BME280;4667;42.726;23.252;2022-11-23T08:36:04;93864.50;;;13.97;nan
9261;BME280;4667;42.726;23.252;2022-11-23T08:38:33;93871.91;;;13.97;nan
9261;BME280;4667;42.726;23.252;2022-11-23T08:41:01;93876.06;;;13.88;nan
9261;BME280;4667;42.726;23.252;2022-11-23T08:43:30;93874.63;;;13.97;nan
9261;BME280;4667;42.726;23.252;2022-11-23T08:46:03;93873.69;;;14.12;nan
9261;BME280;4667;42.726;23.252;2022-11-23T08:48:32;93873.44;;;14.19;nan
9261;BME280;4667;42.726;23.252;2022-11-23T08:50:58;93873.91;;;14.18;nan
9261;BME280;4667;42.726;23.252;2022-11-23T08:53:26;93878.34;;;14.46;nan
9261;BME280;4667;42.726;23.252;2022-11-23T08:55:54;93877.09;;;14.38;nan
9261;BME280;4667;42.726;23.252;2022-11-23T08:58:22;93879.88;;;14.47;nan
9261;BME280;4667;42.726;23.252;2022-11-23T09:00:49;93877.59;;;14.46;nan
9261;BME280;4667;42.726;23.252;2022-11-23T09:03:17;93873.53;;;14.50;nan
9261;BME280;4667;42.726;23.252;2022-11-23T09:05:44;93869.22;;;14.93;nan
9261;BME280;4667;42.726;23.252;2022-11-23T09:08:12;93856.25;;;15.06;nan
9261;BME280;4667;42.726;23.252;2022-11-23T09:10:40;93853.63;;;15.33;nan
9261;BME280;4667;42.726;23.252;2022-11-23T09:13:08;93851.31;;;15.72;nan
9261;BME280;4667;42.726;23.252;2022-11-23T09:15:34;93851.00;;;15.97;nan
9261;BME280;4667;42.726;23.252;2022-11-23T09:18:01;93845.56;;;15.97;nan
9261;BME280;4667;42.726;23.252;2022-11-23T09:20:30;93844.16;;;16.56;nan
9261;BME280;4667;42.726;23.252;2022-11-23T09:22:57;93855.81;;;16.84;nan
9261;BME280;4667;42.726;23.252;2022-11-23T09:25:24;93847.84;;;17.04;nan
9261;BME280;4667;42.726;23.252;2022-11-23T09:27:56;93850.72;;;17.43;nan
9261;BME280;4667;42.726;23.252;2022-11-23T09:30:23;93851.06;;;17.60;nan
9261;BME280;4667;42.726;23.252;2022-11-23T09:32:51;93843.47;;;18.11;nan
9261;BME280;4667;42.726;23.252;2022-11-23T09:35:20;93839.53;;;18.27;nan
9261;BME280;4667;42.726;23.252;2022-11-23T09:37:54;93833.09;;;18.30;nan
9261;BME280;4667;42.726;23.252;2022-11-23T09:40:21;93837.13;;;18.73;nan
9261;BME280;4667;42.726;23.252;2022-11-23T09:42:57;93828.81;;;18.67;nan
9261;BME280;4667;42.726;23.252;2022-11-23T09:45:34;93823.31;;;18.97;nan
9261;BME280;4667;42.726;23.252;2022-11-23T09:48:24;93825.41;;;18.72;nan
9261;BME280;4667;42.726;23.252;2022-11-23T09:50:59;93823.09;;;19.30;nan
9261;BME280;4667;42.726;23.252;2022-11-23T09:53:38;93832.63;;;19.34;nan
9261;BME280;4667;42.726;23.252;2022-11-23T09:56:15;93836.00;;;19.79;nan
9261;BME280;4667;42.726;23.252;2022-11-23T09:58:53;93830.31;;;19.82;nan
9261;BME280;4667;42.726;23.252;2022-11-23T10:46:41;93813.25;;;20.39;nan
9261;BME280;4667;42.726;23.252;2022-11-23T11:37:00;93775.81;;;22.82;nan
9261;BME280;4667;42.726;23.252;2022-11-23T14:25:39;93868.63;;;14.23;nan
9261;BME280;4667;42.726;23.252;2022-11-23T14:41:19;93860.00;;;14.03;nan
9261;BME280;4667;42.726;23.252;2022-11-23T15:13:50;93881.66;;;14.07;nan
9261;BME280;4667;42.726;23.252;2022-11-23T15:48:47;93872.03;;;13.46;nan
9261;BME280;4667;42.726;23.252;2022-11-23T16:16:41;93896.38;;;12.99;nan
9261;BME280;4667;42.726;23.252;2022-11-23T16:19:27;93909.13;;;13.02;nan
9261;BME280;4667;42.726;23.252;2022-11-23T16:22:00;93909.75;;;12.93;nan
9261;BME280;4667;42.726;23.252;2022-11-23T17:07:07;93963.84;;;13.55;nan
9261;BME280;4667;42.726;23.252;2022-11-23T17:28:15;93971.75;;;13.11;nan
9261;BME280;4667;42.726;23.252;2022-11-23T19:06:35;94040.25;;;11.67;nan
9261;BME280;4667;42.726;23.252;2022-11-23T19:11:32;94046.88;;;11.66;nan
9261;BME280;4667;42.726;23.252;2022-11-23T19:18:59;94035.13;;;11.89;nan
9261;BME280;4667;42.726;23.252;2022-11-23T20:56:03;94084.00;;;10.94;nan
9261;BME280;4667;42.726;23.252;2022-11-23T21:41:54;94075.84;;;12.05;nan
9261;BME280;4667;42.726;23.252;2022-11-23T23:03:05;94126.81;;;8.57;nan
